KRHV 271715Z VRB04KT 10SM SCT030 18/10 A3013